sensor_id;sensor_type;location;lat;lon;timestamp;temperature;humidity
12370;DHT22;6249;52.128;9.986;2022-08-26T00:00:59;23.80;99.90
12370;DHT22;6249;52.128;9.986;2022-08-26T00:04:22;23.90;99.90
12370;DHT22;6249;52.128;9.986;2022-08-26T00:07:44;23.80;99.90
12370;DHT22;6249;52.128;9.986;2022-08-26T00:11:05;23.80;99.90
12370;DHT22;6249;52.128;9.986;2022-08-26T00:14:26;23.70;99.90
12370;DHT22;6249;52.128;9.986;2022-08-26T00:17:51;23.70;99.90
12370;DHT22;6249;52.128;9.986;2022-08-26T00:21:11;23.70;99.90
12370;DHT22;6249;52.128;9.986;2022-08-26T00:24:32;23.70;99.90
12370;DHT22;6249;52.128;9.986;2022-08-26T00:27:53;23.70;99.90
12370;DHT22;6249;52.128;9.986;2022-08-26T00:31:16;23.70;99.90
12370;DHT22;6249;52.128;9.986;2022-08-26T00:34:39;23.70;99.90
12370;DHT22;6249;52.128;9.986;2022-08-26T00:38:03;23.70;99.90
12370;DHT22;6249;52.128;9.986;2022-08-26T00:41:24;23.70;99.90
12370;DHT22;6249;52.128;9.986;2022-08-26T00:44:48;23.60;99.90
12370;DHT22;6249;52.128;9.986;2022-08-26T00:48:08;23.60;99.90
12370;DHT22;6249;52.128;9.986;2022-08-26T00:51:29;23.60;99.90
12370;DHT22;6249;52.128;9.986;2022-08-26T00:55:06;23.60;99.90
12370;DHT22;6249;52.128;9.986;2022-08-26T00:58:30;23.50;99.90
12370;DHT22;6249;52.128;9.986;2022-08-26T01:01:51;23.50;99.90
12370;DHT22;6249;52.128;9.986;2022-08-26T01:05:12;23.40;99.90
12370;DHT22;6249;52.128;9.986;2022-08-26T01:08:33;23.40;99.90
12370;DHT22;6249;52.128;9.986;2022-08-26T01:11:57;23.40;99.90
12370;DHT22;6249;52.128;9.986;2022-08-26T01:15:22;23.40;99.90
12370;DHT22;6249;52.128;9.986;2022-08-26T01:18:46;23.30;99.90
12370;DHT22;6249;52.128;9.986;2022-08-26T01:22:42;23.30;99.90
12370;DHT22;6249;52.128;9.986;2022-08-26T01:26:25;23.20;99.90
12370;DHT22;6249;52.128;9.986;2022-08-26T01:29:49;23.20;99.90
12370;DHT22;6249;52.128;9.986;2022-08-26T01:33:15;23.10;99.90
12370;DHT22;6249;52.128;9.986;2022-08-26T01:36:40;23.10;99.90
12370;DHT22;6249;52.128;9.986;2022-08-26T01:40:03;23.00;99.90
12370;DHT22;6249;52.128;9.986;2022-08-26T01:43:26;23.00;99.90
12370;DHT22;6249;52.128;9.986;2022-08-26T01:46:49;22.90;99.90
12370;DHT22;6249;52.128;9.986;2022-08-26T01:50:18;22.90;99.90
12370;DHT22;6249;52.128;9.986;2022-08-26T01:53:40;22.90;99.90
12370;DHT22;6249;52.128;9.986;2022-08-26T01:57:01;22.90;99.90
12370;DHT22;6249;52.128;9.986;2022-08-26T02:00:24;22.80;99.90
12370;DHT22;6249;52.128;9.986;2022-08-26T02:07:34;22.70;99.90
12370;DHT22;6249;52.128;9.986;2022-08-26T02:10:55;22.70;99.90
12370;DHT22;6249;52.128;9.986;2022-08-26T02:14:23;22.60;99.90
12370;DHT22;6249;52.128;9.986;2022-08-26T02:17:45;22.60;99.90
12370;DHT22;6249;52.128;9.986;2022-08-26T02:21:06;22.50;99.90
12370;DHT22;6249;52.128;9.986;2022-08-26T02:24:43;22.50;99.90
12370;DHT22;6249;52.128;9.986;2022-08-26T02:28:08;22.50;99.90
12370;DHT22;6249;52.128;9.986;2022-08-26T02:31:28;22.40;99.90
12370;DHT22;6249;52.128;9.986;2022-08-26T02:34:49;22.40;99.90
12370;DHT22;6249;52.128;9.986;2022-08-26T02:38:12;22.30;99.90
12370;DHT22;6249;52.128;9.986;2022-08-26T02:41:34;22.20;99.90
12370;DHT22;6249;52.128;9.986;2022-08-26T02:44:54;22.30;99.90
12370;DHT22;6249;52.128;9.986;2022-08-26T02:48:19;22.30;99.90
12370;DHT22;6249;52.128;9.986;2022-08-26T02:51:40;22.20;99.90
12370;DHT22;6249;52.128;9.986;2022-08-26T02:55:06;22.20;99.90
12370;DHT22;6249;52.128;9.986;2022-08-26T02:58:27;22.10;99.90
12370;DHT22;6249;52.128;9.986;2022-08-26T03:01:52;22.10;99.90
12370;DHT22;6249;52.128;9.986;2022-08-26T03:05:13;22.10;99.90
12370;DHT22;6249;52.128;9.986;2022-08-26T03:08:37;22.10;99.90
12370;DHT22;6249;52.128;9.986;2022-08-26T03:11:58;22.20;99.90
12370;DHT22;6249;52.128;9.986;2022-08-26T03:15:19;22.20;99.90
12370;DHT22;6249;52.128;9.986;2022-08-26T03:18:40;22.20;99.90
12370;DHT22;6249;52.128;9.986;2022-08-26T03:22:03;22.30;99.90
12370;DHT22;6249;52.128;9.986;2022-08-26T03:25:24;22.20;99.90
12370;DHT22;6249;52.128;9.986;2022-08-26T03:28:48;22.20;99.90
12370;DHT22;6249;52.128;9.986;2022-08-26T03:32:27;22.20;99.90
12370;DHT22;6249;52.128;9.986;2022-08-26T03:35:48;22.20;99.90
12370;DHT22;6249;52.128;9.986;2022-08-26T03:39:10;22.20;99.90
12370;DHT22;6249;52.128;9.986;2022-08-26T03:42:31;22.20;99.90
12370;DHT22;6249;52.128;9.986;2022-08-26T03:45:54;22.10;99.90
12370;DHT22;6249;52.128;9.986;2022-08-26T03:49:17;22.10;99.90
12370;DHT22;6249;52.128;9.986;2022-08-26T03:52:43;22.10;99.90
12370;DHT22;6249;52.128;9.986;2022-08-26T03:56:04;22.00;99.90
12370;DHT22;6249;52.128;9.986;2022-08-26T03:59:26;22.00;99.90
12370;DHT22;6249;52.128;9.986;2022-08-26T04:02:47;21.90;99.90
12370;DHT22;6249;52.128;9.986;2022-08-26T04:06:10;21.70;99.90
12370;DHT22;6249;52.128;9.986;2022-08-26T04:09:31;21.60;99.90
12370;DHT22;6249;52.128;9.986;2022-08-26T04:12:52;21.60;99.90
12370;DHT22;6249;52.128;9.986;2022-08-26T04:16:14;21.40;99.90
12370;DHT22;6249;52.128;9.986;2022-08-26T04:19:35;21.40;99.90
12370;DHT22;6249;52.128;9.986;2022-08-26T04:22:55;21.50;99.90
12370;DHT22;6249;52.128;9.986;2022-08-26T04:26:18;21.50;99.90
12370;DHT22;6249;52.128;9.986;2022-08-26T04:29:44;21.50;99.90
12370;DHT22;6249;52.128;9.986;2022-08-26T04:33:05;21.50;99.90
12370;DHT22;6249;52.128;9.986;2022-08-26T04:36:27;21.50;99.90
12370;DHT22;6249;52.128;9.986;2022-08-26T04:39:52;21.50;99.90
12370;DHT22;6249;52.128;9.986;2022-08-26T04:43:12;21.50;99.90
12370;DHT22;6249;52.128;9.986;2022-08-26T04:46:37;21.40;99.90
12370;DHT22;6249;52.128;9.986;2022-08-26T04:49:58;21.40;99.90
12370;DHT22;6249;52.128;9.986;2022-08-26T04:53:19;21.50;99.90
12370;DHT22;6249;52.128;9.986;2022-08-26T04:56:44;21.50;99.90
12370;DHT22;6249;52.128;9.986;2022-08-26T05:00:09;21.50;99.90
12370;DHT22;6249;52.128;9.986;2022-08-26T05:03:34;21.40;99.90
12370;DHT22;6249;52.128;9.986;2022-08-26T05:06:57;21.40;99.90
12370;DHT22;6249;52.128;9.986;2022-08-26T05:10:20;21.50;99.90
12370;DHT22;6249;52.128;9.986;2022-08-26T05:13:41;21.60;99.90
12370;DHT22;6249;52.128;9.986;2022-08-26T05:17:01;21.50;99.90
12370;DHT22;6249;52.128;9.986;2022-08-26T05:20:24;21.50;99.90
12370;DHT22;6249;52.128;9.986;2022-08-26T05:23:46;21.50;99.90
12370;DHT22;6249;52.128;9.986;2022-08-26T05:27:07;21.50;99.90
12370;DHT22;6249;52.128;9.986;2022-08-26T05:30:30;21.60;99.90
12370;DHT22;6249;52.128;9.986;2022-08-26T05:33:51;21.70;99.90
12370;DHT22;6249;52.128;9.986;2022-08-26T05:37:14;21.70;99.90
12370;DHT22;6249;52.128;9.986;2022-08-26T05:40:43;21.70;99.90
12370;DHT22;6249;52.128;9.986;2022-08-26T05:44:07;21.80;99.90
12370;DHT22;6249;52.128;9.986;2022-08-26T05:47:27;22.00;99.90
12370;DHT22;6249;52.128;9.986;2022-08-26T05:50:50;22.00;99.90
12370;DHT22;6249;52.128;9.986;2022-08-26T05:54:13;21.90;99.90
12370;DHT22;6249;52.128;9.986;2022-08-26T05:57:33;22.00;99.90
12370;DHT22;6249;52.128;9.986;2022-08-26T06:04:24;22.00;99.90
12370;DHT22;6249;52.128;9.986;2022-08-26T06:07:45;21.90;99.90
12370;DHT22;6249;52.128;9.986;2022-08-26T06:11:30;21.80;99.90
12370;DHT22;6249;52.128;9.986;2022-08-26T06:14:52;21.90;99.90
12370;DHT22;6249;52.128;9.986;2022-08-26T06:18:16;22.00;99.90
12370;DHT22;6249;52.128;9.986;2022-08-26T06:21:40;22.00;99.90
12370;DHT22;6249;52.128;9.986;2022-08-26T06:25:01;21.90;99.90
12370;DHT22;6249;52.128;9.986;2022-08-26T06:28:40;21.80;99.90
12370;DHT22;6249;52.128;9.986;2022-08-26T06:32:04;21.70;99.90
12370;DHT22;6249;52.128;9.986;2022-08-26T06:35:24;21.80;99.90
12370;DHT22;6249;52.128;9.986;2022-08-26T06:38:49;21.80;99.90
12370;DHT22;6249;52.128;9.986;2022-08-26T06:42:10;21.90;99.90
12370;DHT22;6249;52.128;9.986;2022-08-26T06:45:33;22.00;99.90
12370;DHT22;6249;52.128;9.986;2022-08-26T06:48:54;21.90;99.90
12370;DHT22;6249;52.128;9.986;2022-08-26T06:52:17;21.90;99.90
12370;DHT22;6249;52.128;9.986;2022-08-26T06:55:43;21.80;99.90
12370;DHT22;6249;52.128;9.986;2022-08-26T06:59:05;21.90;99.90
12370;DHT22;6249;52.128;9.986;2022-08-26T07:02:26;21.80;99.90
12370;DHT22;6249;52.128;9.986;2022-08-26T07:05:49;21.80;99.90
12370;DHT22;6249;52.128;9.986;2022-08-26T07:09:10;21.90;99.90
12370;DHT22;6249;52.128;9.986;2022-08-26T07:12:34;21.90;99.90
12370;DHT22;6249;52.128;9.986;2022-08-26T07:15:55;22.00;99.90
12370;DHT22;6249;52.128;9.986;2022-08-26T07:19:18;22.00;99.90
12370;DHT22;6249;52.128;9.986;2022-08-26T07:22:42;22.00;99.90
12370;DHT22;6249;52.128;9.986;2022-08-26T07:26:07;22.10;99.90
12370;DHT22;6249;52.128;9.986;2022-08-26T07:29:31;22.20;99.90
12370;DHT22;6249;52.128;9.986;2022-08-26T07:32:56;22.30;99.90
12370;DHT22;6249;52.128;9.986;2022-08-26T07:36:20;22.30;99.90
12370;DHT22;6249;52.128;9.986;2022-08-26T07:39:41;22.30;99.90
12370;DHT22;6249;52.128;9.986;2022-08-26T07:43:02;22.30;99.90
12370;DHT22;6249;52.128;9.986;2022-08-26T07:46:23;22.20;99.90
12370;DHT22;6249;52.128;9.986;2022-08-26T07:49:43;22.30;99.90
12370;DHT22;6249;52.128;9.986;2022-08-26T07:53:06;22.40;99.90
12370;DHT22;6249;52.128;9.986;2022-08-26T07:56:29;22.50;99.90
12370;DHT22;6249;52.128;9.986;2022-08-26T07:59:51;22.50;99.90
12370;DHT22;6249;52.128;9.986;2022-08-26T08:03:13;22.50;99.90
12370;DHT22;6249;52.128;9.986;2022-08-26T08:06:36;22.60;99.90
12370;DHT22;6249;52.128;9.986;2022-08-26T08:09:57;22.70;99.90
12370;DHT22;6249;52.128;9.986;2022-08-26T08:13:17;22.80;99.90
12370;DHT22;6249;52.128;9.986;2022-08-26T08:16:42;22.90;99.90
12370;DHT22;6249;52.128;9.986;2022-08-26T08:20:03;23.00;99.90
12370;DHT22;6249;52.128;9.986;2022-08-26T08:23:25;23.10;99.90
12370;DHT22;6249;52.128;9.986;2022-08-26T08:26:46;23.20;99.90
12370;DHT22;6249;52.128;9.986;2022-08-26T08:30:10;23.40;99.90
12370;DHT22;6249;52.128;9.986;2022-08-26T08:33:33;23.70;99.90
12370;DHT22;6249;52.128;9.986;2022-08-26T08:36:55;23.80;99.90
12370;DHT22;6249;52.128;9.986;2022-08-26T08:40:16;24.00;99.90
12370;DHT22;6249;52.128;9.986;2022-08-26T08:43:39;24.30;99.90
12370;DHT22;6249;52.128;9.986;2022-08-26T08:47:04;24.30;99.90
12370;DHT22;6249;52.128;9.986;2022-08-26T08:50:34;24.70;99.90
12370;DHT22;6249;52.128;9.986;2022-08-26T08:53:58;25.00;99.90
12370;DHT22;6249;52.128;9.986;2022-08-26T08:57:37;25.20;99.90
12370;DHT22;6249;52.128;9.986;2022-08-26T09:01:04;25.50;99.90
12370;DHT22;6249;52.128;9.986;2022-08-26T09:08:21;26.10;99.90
12370;DHT22;6249;52.128;9.986;2022-08-26T09:11:42;26.60;99.90
12370;DHT22;6249;52.128;9.986;2022-08-26T09:15:32;27.10;99.90
12370;DHT22;6249;52.128;9.986;2022-08-26T09:19:02;27.50;99.90
12370;DHT22;6249;52.128;9.986;2022-08-26T09:22:31;27.80;99.90
12370;DHT22;6249;52.128;9.986;2022-08-26T09:25:56;27.70;99.90
12370;DHT22;6249;52.128;9.986;2022-08-26T09:29:38;27.80;99.90
12370;DHT22;6249;52.128;9.986;2022-08-26T09:33:06;28.20;99.90
12370;DHT22;6249;52.128;9.986;2022-08-26T09:36:42;28.80;99.90
12370;DHT22;6249;52.128;9.986;2022-08-26T09:40:22;29.40;99.90
12370;DHT22;6249;52.128;9.986;2022-08-26T09:47:31;30.10;99.90
12370;DHT22;6249;52.128;9.986;2022-08-26T09:50:58;30.70;99.60
12370;DHT22;6249;52.128;9.986;2022-08-26T09:54:25;30.80;99.00
12370;DHT22;6249;52.128;9.986;2022-08-26T09:57:56;30.70;98.10
12370;DHT22;6249;52.128;9.986;2022-08-26T10:04:54;31.20;98.40
12370;DHT22;6249;52.128;9.986;2022-08-26T10:08:23;31.80;97.00
12370;DHT22;6249;52.128;9.986;2022-08-26T10:11:51;32.40;94.20
12370;DHT22;6249;52.128;9.986;2022-08-26T10:15:13;32.70;93.60
12370;DHT22;6249;52.128;9.986;2022-08-26T10:18:38;33.40;91.80
12370;DHT22;6249;52.128;9.986;2022-08-26T10:22:10;33.80;90.60
12370;DHT22;6249;52.128;9.986;2022-08-26T10:29:20;34.80;83.50
12370;DHT22;6249;52.128;9.986;2022-08-26T10:36:12;34.80;84.90
12370;DHT22;6249;52.128;9.986;2022-08-26T10:39:59;35.20;80.90
12370;DHT22;6249;52.128;9.986;2022-08-26T10:43:26;35.30;79.20
12370;DHT22;6249;52.128;9.986;2022-08-26T10:47:02;35.10;82.90
12370;DHT22;6249;52.128;9.986;2022-08-26T10:50:31;35.20;81.20
12370;DHT22;6249;52.128;9.986;2022-08-26T10:54:03;35.40;86.40
12370;DHT22;6249;52.128;9.986;2022-08-26T10:57:48;35.30;83.80
12370;DHT22;6249;52.128;9.986;2022-08-26T11:05:15;35.10;87.70
12370;DHT22;6249;52.128;9.986;2022-08-26T11:08:44;35.20;87.70
12370;DHT22;6249;52.128;9.986;2022-08-26T11:12:07;35.30;88.70
12370;DHT22;6249;52.128;9.986;2022-08-26T11:18:50;36.20;84.60
12370;DHT22;6249;52.128;9.986;2022-08-26T11:22:33;36.40;85.20
12370;DHT22;6249;52.128;9.986;2022-08-26T11:33:47;37.30;79.80
12370;DHT22;6249;52.128;9.986;2022-08-26T11:37:12;37.80;76.50
12370;DHT22;6249;52.128;9.986;2022-08-26T11:40:38;38.30;74.90
12370;DHT22;6249;52.128;9.986;2022-08-26T11:44:02;38.60;70.80
12370;DHT22;6249;52.128;9.986;2022-08-26T11:47:30;39.00;67.70
12370;DHT22;6249;52.128;9.986;2022-08-26T11:51:01;39.40;66.80
12370;DHT22;6249;52.128;9.986;2022-08-26T11:54:24;39.30;68.10
12370;DHT22;6249;52.128;9.986;2022-08-26T11:57:59;39.70;67.50
12370;DHT22;6249;52.128;9.986;2022-08-26T12:01:28;40.10;64.50
12370;DHT22;6249;52.128;9.986;2022-08-26T12:04:53;40.60;66.20
12370;DHT22;6249;52.128;9.986;2022-08-26T12:08:22;41.10;64.00
12370;DHT22;6249;52.128;9.986;2022-08-26T12:11:44;41.10;60.30
12370;DHT22;6249;52.128;9.986;2022-08-26T12:15:17;41.90;58.50
12370;DHT22;6249;52.128;9.986;2022-08-26T12:18:41;42.20;57.50
12370;DHT22;6249;52.128;9.986;2022-08-26T12:22:23;42.90;57.30
12370;DHT22;6249;52.128;9.986;2022-08-26T12:25:44;42.80;56.40
12370;DHT22;6249;52.128;9.986;2022-08-26T12:29:08;43.30;53.60
12370;DHT22;6249;52.128;9.986;2022-08-26T12:32:32;43.90;50.40
12370;DHT22;6249;52.128;9.986;2022-08-26T12:35:59;44.10;47.90
12370;DHT22;6249;52.128;9.986;2022-08-26T12:39:33;44.00;49.50
12370;DHT22;6249;52.128;9.986;2022-08-26T12:42:58;44.30;49.40
12370;DHT22;6249;52.128;9.986;2022-08-26T12:46:25;44.10;49.50
12370;DHT22;6249;52.128;9.986;2022-08-26T12:49:56;44.20;49.00
12370;DHT22;6249;52.128;9.986;2022-08-26T12:53:24;45.10;46.20
12370;DHT22;6249;52.128;9.986;2022-08-26T12:56:47;45.70;45.40
12370;DHT22;6249;52.128;9.986;2022-08-26T13:00:35;45.90;44.40
12370;DHT22;6249;52.128;9.986;2022-08-26T13:03:56;45.50;44.80
12370;DHT22;6249;52.128;9.986;2022-08-26T13:07:26;44.70;44.60
12370;DHT22;6249;52.128;9.986;2022-08-26T13:11:00;44.60;44.80
12370;DHT22;6249;52.128;9.986;2022-08-26T13:14:24;42.60;44.90
12370;DHT22;6249;52.128;9.986;2022-08-26T13:17:46;40.40;47.30
12370;DHT22;6249;52.128;9.986;2022-08-26T13:21:15;38.70;49.60
12370;DHT22;6249;52.128;9.986;2022-08-26T13:24:40;37.70;53.90
12370;DHT22;6249;52.128;9.986;2022-08-26T13:28:01;37.30;54.30
12370;DHT22;6249;52.128;9.986;2022-08-26T13:31:24;36.50;56.10
12370;DHT22;6249;52.128;9.986;2022-08-26T13:34:50;35.90;59.10
12370;DHT22;6249;52.128;9.986;2022-08-26T13:38:13;35.60;61.00
12370;DHT22;6249;52.128;9.986;2022-08-26T13:41:34;35.40;60.70
12370;DHT22;6249;52.128;9.986;2022-08-26T13:44:55;35.10;62.80
12370;DHT22;6249;52.128;9.986;2022-08-26T13:48:21;34.90;64.60
12370;DHT22;6249;52.128;9.986;2022-08-26T13:51:44;34.60;66.00
12370;DHT22;6249;52.128;9.986;2022-08-26T13:55:10;34.30;68.90
12370;DHT22;6249;52.128;9.986;2022-08-26T13:58:52;33.90;70.50
12370;DHT22;6249;52.128;9.986;2022-08-26T14:02:12;33.70;72.60
12370;DHT22;6249;52.128;9.986;2022-08-26T14:05:33;33.80;74.10
12370;DHT22;6249;52.128;9.986;2022-08-26T14:08:53;33.60;73.90
12370;DHT22;6249;52.128;9.986;2022-08-26T14:12:16;33.60;75.30
12370;DHT22;6249;52.128;9.986;2022-08-26T14:15:40;33.60;76.30
12370;DHT22;6249;52.128;9.986;2022-08-26T14:19:01;33.70;75.20
12370;DHT22;6249;52.128;9.986;2022-08-26T14:22:23;33.80;74.00
12370;DHT22;6249;52.128;9.986;2022-08-26T14:25:43;33.80;75.70
12370;DHT22;6249;52.128;9.986;2022-08-26T14:29:08;34.20;76.90
12370;DHT22;6249;52.128;9.986;2022-08-26T14:32:29;34.80;72.30
12370;DHT22;6249;52.128;9.986;2022-08-26T14:35:52;35.60;70.00
12370;DHT22;6249;52.128;9.986;2022-08-26T14:39:33;36.10;68.20
12370;DHT22;6249;52.128;9.986;2022-08-26T14:42:58;35.80;70.40
12370;DHT22;6249;52.128;9.986;2022-08-26T14:46:19;35.50;71.10
12370;DHT22;6249;52.128;9.986;2022-08-26T14:49:40;35.90;68.10
12370;DHT22;6249;52.128;9.986;2022-08-26T14:53:00;36.20;63.30
12370;DHT22;6249;52.128;9.986;2022-08-26T14:56:48;36.20;63.50
12370;DHT22;6249;52.128;9.986;2022-08-26T15:00:10;36.40;63.50
12370;DHT22;6249;52.128;9.986;2022-08-26T15:03:31;36.00;64.00
12370;DHT22;6249;52.128;9.986;2022-08-26T15:06:53;35.40;64.60
12370;DHT22;6249;52.128;9.986;2022-08-26T15:10:18;35.20;66.20
12370;DHT22;6249;52.128;9.986;2022-08-26T15:13:41;35.00;67.50
12370;DHT22;6249;52.128;9.986;2022-08-26T15:17:03;35.10;67.40
12370;DHT22;6249;52.128;9.986;2022-08-26T15:20:24;35.30;65.90
12370;DHT22;6249;52.128;9.986;2022-08-26T15:23:46;35.50;65.70
12370;DHT22;6249;52.128;9.986;2022-08-26T15:27:10;35.30;65.60
12370;DHT22;6249;52.128;9.986;2022-08-26T15:30:34;34.90;66.90
12370;DHT22;6249;52.128;9.986;2022-08-26T15:33:54;34.60;67.70
12370;DHT22;6249;52.128;9.986;2022-08-26T15:37:18;34.50;68.40
12370;DHT22;6249;52.128;9.986;2022-08-26T15:40:41;34.20;69.20
12370;DHT22;6249;52.128;9.986;2022-08-26T15:44:06;34.00;69.40
12370;DHT22;6249;52.128;9.986;2022-08-26T15:47:29;33.80;70.80
12370;DHT22;6249;52.128;9.986;2022-08-26T15:50:51;33.60;71.30
12370;DHT22;6249;52.128;9.986;2022-08-26T15:54:13;33.30;71.80
12370;DHT22;6249;52.128;9.986;2022-08-26T15:57:35;33.20;72.20
12370;DHT22;6249;52.128;9.986;2022-08-26T16:00:56;33.10;73.40
12370;DHT22;6249;52.128;9.986;2022-08-26T16:04:17;33.00;74.40
12370;DHT22;6249;52.128;9.986;2022-08-26T16:07:42;33.00;74.60
12370;DHT22;6249;52.128;9.986;2022-08-26T16:11:05;33.10;74.30
12370;DHT22;6249;52.128;9.986;2022-08-26T16:14:30;33.10;73.70
12370;DHT22;6249;52.128;9.986;2022-08-26T16:17:53;33.00;73.60
12370;DHT22;6249;52.128;9.986;2022-08-26T16:21:23;33.00;75.00
12370;DHT22;6249;52.128;9.986;2022-08-26T16:24:47;32.90;76.20
12370;DHT22;6249;52.128;9.986;2022-08-26T16:28:08;32.70;77.60
12370;DHT22;6249;52.128;9.986;2022-08-26T16:31:29;32.40;79.60
12370;DHT22;6249;52.128;9.986;2022-08-26T16:34:50;32.30;81.00
12370;DHT22;6249;52.128;9.986;2022-08-26T16:38:13;32.10;82.50
12370;DHT22;6249;52.128;9.986;2022-08-26T16:41:34;31.70;84.50
12370;DHT22;6249;52.128;9.986;2022-08-26T16:44:57;31.40;85.80
12370;DHT22;6249;52.128;9.986;2022-08-26T16:48:18;30.90;87.30
12370;DHT22;6249;52.128;9.986;2022-08-26T16:51:41;30.60;89.10
12370;DHT22;6249;52.128;9.986;2022-08-26T16:55:06;30.40;90.70
12370;DHT22;6249;52.128;9.986;2022-08-26T16:58:29;30.20;91.50
12370;DHT22;6249;52.128;9.986;2022-08-26T17:01:52;30.10;90.90
12370;DHT22;6249;52.128;9.986;2022-08-26T17:05:14;30.00;89.00
12370;DHT22;6249;52.128;9.986;2022-08-26T17:08:41;29.70;87.80
12370;DHT22;6249;52.128;9.986;2022-08-26T17:12:05;29.50;85.30
12370;DHT22;6249;52.128;9.986;2022-08-26T17:15:26;29.30;86.60
12370;DHT22;6249;52.128;9.986;2022-08-26T17:18:49;29.10;90.40
12370;DHT22;6249;52.128;9.986;2022-08-26T17:22:12;29.10;92.70
12370;DHT22;6249;52.128;9.986;2022-08-26T17:25:38;28.80;96.30
12370;DHT22;6249;52.128;9.986;2022-08-26T17:28:59;28.20;99.90
12370;DHT22;6249;52.128;9.986;2022-08-26T17:32:19;27.90;99.90
12370;DHT22;6249;52.128;9.986;2022-08-26T17:35:40;27.80;99.90
12370;DHT22;6249;52.128;9.986;2022-08-26T17:39:01;27.50;99.90
12370;DHT22;6249;52.128;9.986;2022-08-26T17:42:28;27.30;99.90
12370;DHT22;6249;52.128;9.986;2022-08-26T17:45:48;27.30;99.90
12370;DHT22;6249;52.128;9.986;2022-08-26T17:49:09;27.20;99.90
12370;DHT22;6249;52.128;9.986;2022-08-26T17:52:32;26.90;99.90
12370;DHT22;6249;52.128;9.986;2022-08-26T17:55:53;26.20;99.90
12370;DHT22;6249;52.128;9.986;2022-08-26T17:59:14;25.50;99.90
12370;DHT22;6249;52.128;9.986;2022-08-26T18:02:37;25.20;99.90
12370;DHT22;6249;52.128;9.986;2022-08-26T18:05:58;25.10;99.90
12370;DHT22;6249;52.128;9.986;2022-08-26T18:09:19;24.80;99.90
12370;DHT22;6249;52.128;9.986;2022-08-26T18:12:40;24.60;99.90
12370;DHT22;6249;52.128;9.986;2022-08-26T18:16:04;24.50;99.90
12370;DHT22;6249;52.128;9.986;2022-08-26T18:19:26;24.40;99.90
12370;DHT22;6249;52.128;9.986;2022-08-26T18:22:49;24.20;99.90
12370;DHT22;6249;52.128;9.986;2022-08-26T18:26:24;24.10;99.90
12370;DHT22;6249;52.128;9.986;2022-08-26T18:29:45;24.00;99.90
12370;DHT22;6249;52.128;9.986;2022-08-26T18:33:10;24.00;99.90
12370;DHT22;6249;52.128;9.986;2022-08-26T18:36:35;24.00;99.90
12370;DHT22;6249;52.128;9.986;2022-08-26T18:39:56;24.10;99.90
12370;DHT22;6249;52.128;9.986;2022-08-26T18:43:18;24.00;99.90
12370;DHT22;6249;52.128;9.986;2022-08-26T18:46:40;23.90;99.90
12370;DHT22;6249;52.128;9.986;2022-08-26T18:50:03;23.80;99.90
12370;DHT22;6249;52.128;9.986;2022-08-26T18:53:24;23.80;99.90
12370;DHT22;6249;52.128;9.986;2022-08-26T18:56:44;23.70;99.90
12370;DHT22;6249;52.128;9.986;2022-08-26T19:00:06;23.70;99.90
12370;DHT22;6249;52.128;9.986;2022-08-26T19:03:28;23.70;99.90
12370;DHT22;6249;52.128;9.986;2022-08-26T19:06:51;23.60;99.90
12370;DHT22;6249;52.128;9.986;2022-08-26T19:10:12;23.60;99.90
12370;DHT22;6249;52.128;9.986;2022-08-26T19:13:33;23.70;99.90
12370;DHT22;6249;52.128;9.986;2022-08-26T19:16:55;23.80;99.90
12370;DHT22;6249;52.128;9.986;2022-08-26T19:20:20;23.90;99.90
12370;DHT22;6249;52.128;9.986;2022-08-26T19:23:42;23.90;99.90
12370;DHT22;6249;52.128;9.986;2022-08-26T19:27:05;23.90;99.90
12370;DHT22;6249;52.128;9.986;2022-08-26T19:30:26;24.00;99.90
12370;DHT22;6249;52.128;9.986;2022-08-26T19:33:49;23.90;99.90
12370;DHT22;6249;52.128;9.986;2022-08-26T19:37:10;23.90;99.90
12370;DHT22;6249;52.128;9.986;2022-08-26T19:40:33;23.80;99.90
12370;DHT22;6249;52.128;9.986;2022-08-26T19:43:54;23.70;99.90
12370;DHT22;6249;52.128;9.986;2022-08-26T19:47:17;23.70;99.90
12370;DHT22;6249;52.128;9.986;2022-08-26T19:50:38;23.80;99.90
12370;DHT22;6249;52.128;9.986;2022-08-26T19:54:00;23.80;99.90
12370;DHT22;6249;52.128;9.986;2022-08-26T19:57:20;23.80;99.90
12370;DHT22;6249;52.128;9.986;2022-08-26T20:00:41;23.60;99.90
12370;DHT22;6249;52.128;9.986;2022-08-26T20:04:05;23.60;99.90
12370;DHT22;6249;52.128;9.986;2022-08-26T20:07:28;23.60;99.90
12370;DHT22;6249;52.128;9.986;2022-08-26T20:10:49;23.50;99.90
12370;DHT22;6249;52.128;9.986;2022-08-26T20:14:10;23.50;99.90
12370;DHT22;6249;52.128;9.986;2022-08-26T20:17:31;23.50;99.90
12370;DHT22;6249;52.128;9.986;2022-08-26T20:20:54;23.40;99.90
12370;DHT22;6249;52.128;9.986;2022-08-26T20:24:33;23.30;99.90
12370;DHT22;6249;52.128;9.986;2022-08-26T20:27:54;23.40;99.90
12370;DHT22;6249;52.128;9.986;2022-08-26T20:31:15;23.30;99.90
12370;DHT22;6249;52.128;9.986;2022-08-26T20:34:38;23.10;99.90
12370;DHT22;6249;52.128;9.986;2022-08-26T20:38:01;23.00;99.90
12370;DHT22;6249;52.128;9.986;2022-08-26T20:41:23;23.00;99.90
12370;DHT22;6249;52.128;9.986;2022-08-26T20:44:45;23.00;99.90
12370;DHT22;6249;52.128;9.986;2022-08-26T20:48:07;22.80;99.90
12370;DHT22;6249;52.128;9.986;2022-08-26T20:51:28;22.80;99.90
12370;DHT22;6249;52.128;9.986;2022-08-26T20:54:53;22.90;99.90
12370;DHT22;6249;52.128;9.986;2022-08-26T20:58:14;22.70;99.90
12370;DHT22;6249;52.128;9.986;2022-08-26T21:01:40;22.60;99.90
12370;DHT22;6249;52.128;9.986;2022-08-26T21:05:00;22.50;99.90
12370;DHT22;6249;52.128;9.986;2022-08-26T21:08:21;22.40;99.90
12370;DHT22;6249;52.128;9.986;2022-08-26T21:11:43;22.30;99.90
12370;DHT22;6249;52.128;9.986;2022-08-26T21:15:05;22.20;99.90
12370;DHT22;6249;52.128;9.986;2022-08-26T21:18:26;22.20;99.90
12370;DHT22;6249;52.128;9.986;2022-08-26T21:21:47;22.10;99.90
12370;DHT22;6249;52.128;9.986;2022-08-26T21:25:08;22.00;99.90
12370;DHT22;6249;52.128;9.986;2022-08-26T21:28:29;21.90;99.90
12370;DHT22;6249;52.128;9.986;2022-08-26T21:31:49;21.90;99.90
12370;DHT22;6249;52.128;9.986;2022-08-26T21:35:12;21.90;99.90
12370;DHT22;6249;52.128;9.986;2022-08-26T21:38:33;21.80;99.90
12370;DHT22;6249;52.128;9.986;2022-08-26T21:41:55;21.80;99.90
12370;DHT22;6249;52.128;9.986;2022-08-26T21:45:19;21.80;99.90
12370;DHT22;6249;52.128;9.986;2022-08-26T21:48:48;21.90;99.90
12370;DHT22;6249;52.128;9.986;2022-08-26T21:52:10;21.90;99.90
12370;DHT22;6249;52.128;9.986;2022-08-26T21:55:34;22.00;99.90
12370;DHT22;6249;52.128;9.986;2022-08-26T21:58:55;21.90;99.90
12370;DHT22;6249;52.128;9.986;2022-08-26T22:02:16;21.90;99.90
12370;DHT22;6249;52.128;9.986;2022-08-26T22:05:42;21.90;99.90
12370;DHT22;6249;52.128;9.986;2022-08-26T22:09:03;21.90;99.90
12370;DHT22;6249;52.128;9.986;2022-08-26T22:12:26;21.70;99.90
12370;DHT22;6249;52.128;9.986;2022-08-26T22:15:47;21.60;99.90
12370;DHT22;6249;52.128;9.986;2022-08-26T22:19:10;21.60;99.90
12370;DHT22;6249;52.128;9.986;2022-08-26T22:22:33;21.50;99.90
12370;DHT22;6249;52.128;9.986;2022-08-26T22:25:54;21.50;99.90
12370;DHT22;6249;52.128;9.986;2022-08-26T22:29:16;21.40;99.90